Time;durP1;ratioP1;P1;durP2;ratioP2;P2;SDS_P1;SDS_P2;PMS_P1;PMS_P2;Temp;Humidity;BMP_temperature;BMP_pressure;BME280_temperature;BME280_humidity;BME280_pressure;Samples;Min_cycle;Max_cycle;Signal;HPM_P1;HPM_P2
2022/03/27 00:01:03;;;;;;;23.02;8.75;;;;;;;3.40;78.45;100155.53;5054787;28;20059;-83
2022/03/27 00:03:29;;;;;;;28.90;9.98;;;;;;;3.45;78.58;100178.41;5066760;28;20080;-83
2022/03/27 00:05:57;;;;;;;21.90;8.52;;;;;;;3.39;80.77;100186.94;5055792;28;20561;-83
2022/03/27 00:08:24;;;;;;;22.02;10.40;;;;;;;3.34;81.03;100170.28;5066554;28;20044;-83
2022/03/27 00:13:35;;;;;;;24.13;9.93;;;;;;;3.34;81.14;100181.03;5067390;28;20823;-83
2022/03/27 00:16:03;;;;;;;25.17;9.80;;;;;;;3.26;82.28;100175.38;5054334;28;20145;-83
2022/03/27 00:18:30;;;;;;;26.35;9.45;;;;;;;3.18;83.24;100170.56;5055011;28;20087;-83
2022/03/27 00:20:56;;;;;;;22.15;10.00;;;;;;;2.96;85.63;100160.53;5054687;28;20044;-83
2022/03/27 00:23:23;;;;;;;24.35;10.27;;;;;;;3.16;85.82;100189.50;5065901;28;20822;-83
2022/03/27 00:25:50;;;;;;;30.90;9.93;;;;;;;2.91;85.51;100154.63;5070776;28;20084;-83
2022/03/27 00:28:17;;;;;;;20.90;10.02;;;;;;;2.83;85.91;100164.09;5054756;28;20053;-83
2022/03/27 00:30:44;;;;;;;29.60;10.75;;;;;;;2.99;84.27;100188.00;5054695;28;20053;-83
2022/03/27 00:33:12;;;;;;;20.35;11.25;;;;;;;2.92;85.14;100173.34;5057807;28;20052;-84
2022/03/27 00:35:39;;;;;;;21.45;9.18;;;;;;;2.82;84.72;100170.44;5058201;28;20048;-83
2022/03/27 00:38:07;;;;;;;26.98;10.45;;;;;;;2.74;85.68;100161.22;5054646;28;20134;-83
2022/03/27 00:40:34;;;;;;;30.33;10.30;;;;;;;2.86;84.88;100175.59;5069042;28;20084;-83
2022/03/27 00:43:01;;;;;;;23.85;11.13;;;;;;;2.70;84.60;100146.31;5073172;28;20127;-83
2022/03/27 00:45:28;;;;;;;22.00;9.73;;;;;;;2.80;85.65;100166.13;5056471;28;20052;-83
2022/03/27 00:47:55;;;;;;;27.08;9.05;;;;;;;2.73;86.75;100168.41;5066349;28;20052;-83
2022/03/27 00:50:23;;;;;;;26.30;9.15;;;;;;;2.79;85.30;100167.13;5054844;28;20068;-83
2022/03/27 00:52:50;;;;;;;25.63;9.57;;;;;;;2.77;84.86;100167.22;5058754;28;20076;-83
2022/03/27 00:55:17;;;;;;;23.42;9.70;;;;;;;2.77;85.27;100169.03;5053426;28;20131;-83
2022/03/27 00:57:44;;;;;;;26.85;10.20;;;;;;;2.78;84.54;100168.09;5057178;28;20484;-84
2022/03/27 01:00:20;;;;;;;27.25;9.07;;;;;;;2.74;84.88;100171.94;5063667;28;20102;-83
2022/03/27 01:02:47;;;;;;;19.20;8.32;;;;;;;2.82;85.54;100173.13;5062682;28;20040;-83
2022/03/27 01:05:16;;;;;;;23.35;10.23;;;;;;;2.80;85.47;100175.06;5064288;28;20051;-84
2022/03/27 01:07:46;;;;;;;21.58;10.27;;;;;;;2.63;86.28;100160.19;5061931;28;20045;-84
2022/03/27 01:10:12;;;;;;;21.48;9.38;;;;;;;2.68;85.23;100146.41;5058254;28;20072;-84
2022/03/27 01:12:41;;;;;;;23.35;10.02;;;;;;;2.65;86.87;100184.22;5054116;28;20087;-84
2022/03/27 01:15:24;;;;;;;24.08;11.07;;;;;;;2.57;87.04;100173.16;5058820;28;20474;-84
2022/03/27 01:17:51;;;;;;;26.58;10.65;;;;;;;2.48;88.60;100172.88;5072425;28;20686;-84
2022/03/27 01:20:23;;;;;;;29.02;11.07;;;;;;;2.40;89.14;100163.63;5075495;28;20056;-84
2022/03/27 01:22:50;;;;;;;19.98;9.75;;;;;;;2.34;88.02;100158.69;5073421;28;20072;-83
2022/03/27 01:25:16;;;;;;;23.48;9.10;;;;;;;2.29;88.45;100153.66;5074937;28;20151;-84
2022/03/27 01:27:43;;;;;;;20.98;9.43;;;;;;;2.21;87.95;100131.84;5075022;28;20068;-84
2022/03/27 01:30:11;;;;;;;26.80;11.80;;;;;;;2.35;87.21;100147.84;5074787;28;20040;-84
2022/03/27 01:32:38;;;;;;;25.08;9.55;;;;;;;2.28;88.33;100146.56;5067031;28;20060;-84
2022/03/27 01:35:05;;;;;;;24.73;9.13;;;;;;;2.37;87.15;100153.97;5066767;28;20103;-83
2022/03/27 01:37:33;;;;;;;23.75;9.25;;;;;;;2.16;88.85;100137.53;5058219;28;20064;-84
2022/03/27 01:40:00;;;;;;;24.35;10.35;;;;;;;2.30;89.46;100158.91;5067242;28;20488;-84
2022/03/27 01:42:27;;;;;;;22.02;9.93;;;;;;;2.20;89.40;100149.78;5056369;28;20135;-83
2022/03/27 01:44:53;;;;;;;27.48;10.75;;;;;;;2.00;89.34;100127.00;5080465;28;20036;-83
2022/03/27 01:47:20;;;;;;;28.88;10.02;;;;;;;2.08;90.44;100158.69;5092782;28;20067;-83
2022/03/27 01:49:47;;;;;;;27.63;10.65;;;;;;;1.95;90.71;100153.31;5091283;28;20068;-83
2022/03/27 01:52:16;;;;;;;19.80;9.88;;;;;;;1.82;91.64;100141.69;5079246;28;20040;-83
2022/03/27 01:54:44;;;;;;;27.98;10.38;;;;;;;2.00;91.03;100145.78;5077157;28;20037;-83
2022/03/27 01:57:12;;;;;;;26.42;11.80;;;;;;;2.03;91.63;100152.75;5077770;28;20048;-83
2022/03/27 01:59:39;;;;;;;26.17;11.15;;;;;;;1.97;91.80;100137.94;5073600;28;20053;-84
2022/03/27 02:02:05;;;;;;;17.85;9.75;;;;;;;1.86;92.05;100144.06;5075519;28;20055;-84
2022/03/27 02:04:32;;;;;;;31.38;11.82;;;;;;;1.97;91.39;100143.31;5079116;28;20059;-83
2022/03/27 02:06:59;;;;;;;18.75;10.20;;;;;;;1.91;91.84;100139.25;5094689;28;20060;-83
2022/03/27 02:09:25;;;;;;;30.65;10.18;;;;;;;2.02;90.82;100143.00;5086485;28;20044;-83
2022/03/27 02:11:53;;;;;;;26.70;10.02;;;;;;;2.01;91.37;100138.63;5057131;28;20044;-83
2022/03/27 02:14:21;;;;;;;21.23;10.65;;;;;;;1.93;92.32;100140.00;5053314;28;20136;-82
2022/03/27 02:16:48;;;;;;;21.83;10.55;;;;;;;2.01;92.05;100154.72;5053845;28;20461;-83
2022/03/27 02:19:14;;;;;;;23.27;9.60;;;;;;;1.99;91.67;100144.09;5051665;28;20057;-83
2022/03/27 02:21:43;;;;;;;23.08;10.25;;;;;;;1.98;92.23;100160.28;5062218;28;20059;-83
2022/03/27 02:24:11;;;;;;;22.75;10.20;;;;;;;1.79;91.63;100133.84;5071065;28;20052;-83
2022/03/27 02:26:44;;;;;;;32.45;11.52;;;;;;;1.73;92.00;100144.06;5067689;28;20140;-83
2022/03/27 02:29:13;;;;;;;27.00;10.77;;;;;;;1.72;93.11;100162.91;5072226;28;20286;-83
2022/03/27 02:31:39;;;;;;;26.23;10.33;;;;;;;1.70;93.36;100165.72;5066252;28;20492;-83
2022/03/27 02:34:06;;;;;;;23.35;10.30;;;;;;;1.68;93.11;100164.94;5055041;28;20060;-83
2022/03/27 02:36:32;;;;;;;28.63;9.65;;;;;;;1.64;93.27;100152.72;5052287;28;20049;-83
2022/03/27 02:38:59;;;;;;;24.08;9.77;;;;;;;1.55;93.46;100145.28;5065418;28;20054;-83
2022/03/27 02:41:26;;;;;;;23.95;9.77;;;;;;;1.54;92.77;100139.06;5070656;28;20407;-83
2022/03/27 02:43:52;;;;;;;24.60;10.32;;;;;;;1.52;93.32;100145.47;5052297;28;20045;-83
2022/03/27 02:46:20;;;;;;;31.67;9.70;;;;;;;1.51;94.34;100149.16;5051459;28;20170;-83
2022/03/27 02:48:47;;;;;;;21.88;10.52;;;;;;;1.61;94.85;100155.56;5061723;28;20053;-83
2022/03/27 02:51:14;;;;;;;23.10;10.65;;;;;;;1.41;95.44;100127.44;5070524;28;20050;-84
2022/03/27 02:53:40;;;;;;;18.65;8.65;;;;;;;1.46;95.85;100138.75;5064453;28;20419;-83
2022/03/27 02:56:09;;;;;;;28.33;9.82;;;;;;;1.37;99.84;100142.88;5068863;28;20048;-83
2022/03/27 02:58:36;;;;;;;26.33;8.68;;;;;;;1.47;98.88;100158.34;5070655;28;20056;-84
2022/03/27 03:01:03;;;;;;;20.65;10.43;;;;;;;1.37;99.81;100147.34;5069575;28;20463;-84
2022/03/27 03:03:31;;;;;;;21.98;8.55;;;;;;;1.47;99.94;100156.50;5070139;28;20173;-83
2022/03/27 03:05:59;;;;;;;22.92;9.27;;;;;;;1.50;98.77;100148.25;5056618;28;20048;-83
2022/03/27 03:08:27;;;;;;;25.65;10.63;;;;;;;1.27;98.54;100138.25;5061559;28;20052;-84
2022/03/27 03:10:56;;;;;;;26.60;11.70;;;;;;;1.25;98.39;100151.75;5067296;28;20076;-83
2022/03/27 03:13:22;;;;;;;22.38;10.50;;;;;;;1.23;97.90;100145.59;5069886;28;20075;-83
2022/03/27 03:15:51;;;;;;;24.55;9.98;;;;;;;1.11;98.70;100141.06;5054979;28;20501;-83
2022/03/27 03:18:18;;;;;;;24.95;9.88;;;;;;;1.04;99.05;100140.63;5060838;28;20411;-83
2022/03/27 03:20:46;;;;;;;31.02;12.02;;;;;;;0.92;99.31;100136.03;5061784;28;20048;-83
2022/03/27 03:23:13;;;;;;;28.75;11.13;;;;;;;1.10;98.55;100158.06;5061618;28;20143;-83
2022/03/27 03:25:42;;;;;;;18.13;9.30;;;;;;;0.96;98.56;100129.53;5069696;28;20052;-83
2022/03/27 03:28:09;;;;;;;28.88;9.57;;;;;;;0.96;98.45;100138.41;5068644;28;20412;-84
2022/03/27 03:30:36;;;;;;;22.10;9.37;;;;;;;0.74;98.42;100133.59;5058388;28;20463;-83
2022/03/27 03:33:03;;;;;;;22.53;10.53;;;;;;;0.70;99.62;100146.31;5055858;28;20052;-83
2022/03/27 03:35:29;;;;;;;19.45;9.30;;;;;;;0.67;99.85;100151.84;5054581;28;20075;-84
2022/03/27 03:37:58;;;;;;;21.45;9.10;;;;;;;0.53;100.00;100143.84;5056455;28;20079;-84
2022/03/27 03:40:25;;;;;;;26.02;9.85;;;;;;;0.67;100.00;100153.69;5070106;28;20052;-83
2022/03/27 03:42:52;;;;;;;26.58;9.40;;;;;;;0.77;99.58;100156.63;5069329;28;20041;-83
2022/03/27 03:45:19;;;;;;;21.73;9.52;;;;;;;0.71;98.69;100128.44;5062556;28;20048;-84
2022/03/27 03:47:45;;;;;;;19.50;9.50;;;;;;;0.91;98.55;100151.25;5069595;28;20053;-83
2022/03/27 03:50:13;;;;;;;21.58;10.23;;;;;;;0.72;99.37;100140.00;5065738;28;20040;-83
2022/03/27 03:52:40;;;;;;;20.67;9.35;;;;;;;0.79;99.16;100160.91;5067370;28;20491;-83
2022/03/27 03:55:09;;;;;;;21.27;10.00;;;;;;;0.60;100.00;100142.47;5050979;28;20072;-83
2022/03/27 03:57:36;;;;;;;22.27;9.47;;;;;;;0.59;100.00;100154.16;5050239;28;20592;-83
2022/03/27 04:00:03;;;;;;;25.27;9.93;;;;;;;0.54;100.00;100153.56;5059286;28;20067;-83
2022/03/27 04:02:29;;;;;;;42.30;10.13;;;;;;;0.61;99.10;100144.22;5055758;28;20480;-83
2022/03/27 04:04:56;;;;;;;21.15;9.43;;;;;;;0.72;99.22;100161.41;5065425;28;20052;-83
2022/03/27 04:07:22;;;;;;;20.70;9.03;;;;;;;0.66;99.08;100147.47;5069692;28;20056;-83
2022/03/27 04:09:49;;;;;;;29.42;10.30;;;;;;;0.63;99.83;100153.03;5053474;28;20072;-83
2022/03/27 04:12:17;;;;;;;29.83;10.25;;;;;;;0.50;100.00;100144.91;5050092;28;20057;-83
2022/03/27 04:14:44;;;;;;;24.33;9.83;;;;;;;0.52;100.00;100158.19;5065406;28;20053;-83
2022/03/27 04:17:11;;;;;;;24.08;10.25;;;;;;;0.50;100.00;100168.13;5059155;28;20416;-83
2022/03/27 04:19:40;;;;;;;21.67;9.83;;;;;;;0.51;100.00;100153.78;5062523;28;20078;-83
2022/03/27 04:22:07;;;;;;;31.40;9.77;;;;;;;0.63;100.00;100162.84;5054761;28;20045;-83
2022/03/27 04:24:34;;;;;;;26.93;9.60;;;;;;;0.39;100.00;100144.69;5069655;28;20128;-84
2022/03/27 04:27:01;;;;;;;22.23;9.80;;;;;;;0.45;100.00;100168.41;5060401;28;20051;-83
2022/03/27 04:29:29;;;;;;;27.97;10.53;;;;;;;0.37;100.00;100169.84;5061479;28;20056;-83
2022/03/27 04:31:55;;;;;;;20.13;10.20;;;;;;;0.29;100.00;100170.31;5061081;28;20064;-83
2022/03/27 04:34:22;;;;;;;24.97;10.80;;;;;;;0.16;100.00;100159.50;5059715;28;20522;-83
2022/03/27 04:36:49;;;;;;;23.80;10.47;;;;;;;0.23;100.00;100155.50;5059692;28;20045;-83
2022/03/27 04:39:16;;;;;;;23.20;10.13;;;;;;;0.16;100.00;100138.97;5066867;28;20143;-83
2022/03/27 04:41:44;;;;;;;22.37;10.53;;;;;;;0.39;100.00;100160.75;5070043;28;20090;-83
2022/03/27 04:44:11;;;;;;;22.75;10.90;;;;;;;0.30;100.00;100138.13;5068026;28;20052;-84
2022/03/27 04:46:39;;;;;;;25.47;9.87;;;;;;;0.44;100.00;100155.13;5071387;28;20040;-83
2022/03/27 04:49:06;;;;;;;26.90;10.33;;;;;;;0.40;100.00;100165.16;5067199;28;20120;-83
2022/03/27 04:51:33;;;;;;;27.53;11.93;;;;;;;0.29;100.00;100152.44;5061088;28;20048;-83
2022/03/27 04:53:59;;;;;;;25.53;11.10;;;;;;;0.52;100.00;100160.84;5069852;28;20495;-83
2022/03/27 04:56:26;;;;;;;24.90;10.98;;;;;;;0.53;100.00;100166.09;5068979;28;20056;-83
2022/03/27 04:58:53;;;;;;;23.73;10.60;;;;;;;0.42;100.00;100152.56;5069248;28;20051;-83
2022/03/27 05:01:19;;;;;;;24.00;10.20;;;;;;;0.33;100.00;100137.94;5053493;28;20102;-83
2022/03/27 05:03:47;;;;;;;24.30;10.80;;;;;;;0.37;100.00;100172.53;5071059;28;20124;-83
2022/03/27 05:06:15;;;;;;;22.30;8.93;;;;;;;0.35;100.00;100170.78;5061070;28;20123;-83
2022/03/27 05:08:44;;;;;;;26.67;9.73;;;;;;;0.30;100.00;100150.63;5060572;28;20048;-84
2022/03/27 05:11:11;;;;;;;25.92;10.90;;;;;;;0.46;100.00;100163.91;5070125;28;20049;-83
2022/03/27 05:13:37;;;;;;;23.35;9.68;;;;;;;0.40;100.00;100148.25;5071273;28;20048;-83
2022/03/27 05:16:05;;;;;;;29.75;11.32;;;;;;;0.60;100.00;100174.59;5073744;28;20491;-83
2022/03/27 05:18:31;;;;;;;26.40;10.43;;;;;;;0.60;100.00;100168.41;5060811;28;20063;-83
2022/03/27 05:20:59;;;;;;;24.20;9.73;;;;;;;0.51;100.00;100154.66;5062380;28;20052;-84
2022/03/27 05:23:26;;;;;;;22.77;10.53;;;;;;;0.49;100.00;100151.19;5068218;28;20055;-83
2022/03/27 05:25:52;;;;;;;32.57;9.70;;;;;;;0.47;100.00;100165.66;5071351;28;20056;-84
2022/03/27 05:28:20;;;;;;;33.60;11.67;;;;;;;0.62;100.00;100171.84;5067998;28;20078;-85
2022/03/27 05:30:46;;;;;;;31.10;10.37;;;;;;;0.39;100.00;100138.50;5073029;28;20040;-84
2022/03/27 05:33:13;;;;;;;25.55;10.20;;;;;;;0.52;100.00;100185.78;5063143;28;20148;-84
2022/03/27 05:35:41;;;;;;;22.03;10.00;;;;;;;0.56;100.00;100182.91;5071952;28;20045;-84
2022/03/27 05:38:09;;;;;;;28.77;9.87;;;;;;;0.63;100.00;100190.50;5079374;28;20044;-80
2022/03/27 05:40:36;;;;;;;24.87;9.63;;;;;;;0.59;100.00;100190.75;5072398;28;20052;-79
2022/03/27 05:43:02;;;;;;;35.63;12.43;;;;;;;0.53;100.00;100189.34;5063182;28;20037;-78
2022/03/27 05:45:29;;;;;;;37.57;12.93;;;;;;;0.49;100.00;100195.84;5067278;28;20052;-81
2022/03/27 05:47:56;;;;;;;63.42;19.25;;;;;;;0.40;100.00;100202.59;5053816;28;20560;-85
2022/03/27 05:50:25;;;;;;;143.77;45.03;;;;;;;0.36;100.00;100193.03;5060208;28;20048;-85
2022/03/27 05:52:53;;;;;;;142.20;45.60;;;;;;;0.14;100.00;100181.00;5060713;28;20075;-85
2022/03/27 05:55:22;;;;;;;40.07;14.37;;;;;;;0.38;100.00;100169.75;5070193;28;20049;-84
2022/03/27 05:57:49;;;;;;;22.75;10.70;;;;;;;0.43;100.00;100193.53;5056862;28;20499;-84
2022/03/27 06:00:20;;;;;;;29.77;10.67;;;;;;;0.39;100.00;100181.28;5064989;28;20485;-84
2022/03/27 06:02:49;;;;;;;23.77;10.63;;;;;;;0.28;100.00;100180.13;5065218;28;20111;-85
2022/03/27 06:05:22;;;;;;;27.85;9.75;;;;;;;0.51;100.00;100196.59;5071550;28;20111;-85
2022/03/27 06:07:50;;;;;;;27.73;11.10;;;;;;;0.71;100.00;100173.94;5069926;28;20052;-85
2022/03/27 06:10:22;;;;;;;31.30;11.43;;;;;;;1.02;100.00;100174.66;5071899;28;20106;-84
2022/03/27 06:12:49;;;;;;;22.40;11.27;;;;;;;1.42;100.00;100166.69;5067613;28;20416;-84
2022/03/27 06:15:16;;;;;;;27.30;11.02;;;;;;;1.86;100.00;100170.88;5051973;28;20136;-84
2022/03/27 06:17:45;;;;;;;30.43;11.07;;;;;;;2.07;99.14;100175.75;5059275;28;20052;-84
2022/03/27 06:20:15;;;;;;;32.17;11.45;;;;;;;2.38;97.51;100190.56;5064436;28;20096;-84
2022/03/27 06:22:42;;;;;;;31.77;11.20;;;;;;;2.78;95.22;100201.16;5067626;28;20098;-84
2022/03/27 06:25:10;;;;;;;32.25;12.90;;;;;;;3.00;92.72;100197.78;5071450;28;20442;-84
2022/03/27 06:27:39;;;;;;;24.58;11.20;;;;;;;3.15;92.35;100201.19;5070714;28;20044;-84
2022/03/27 06:30:07;;;;;;;28.42;12.80;;;;;;;3.28;92.32;100192.22;5052709;28;20056;-84
2022/03/27 06:32:34;;;;;;;23.08;10.75;;;;;;;3.51;90.72;100201.31;5053492;28;20068;-84
2022/03/27 06:35:01;;;;;;;25.27;12.02;;;;;;;3.55;90.77;100205.47;5063267;28;20052;-84
2022/03/27 06:37:29;;;;;;;24.77;11.38;;;;;;;3.67;89.50;100190.25;5061947;28;20122;-84
2022/03/27 06:39:55;;;;;;;28.20;12.45;;;;;;;3.62;90.18;100198.66;5064347;28;20049;-84
2022/03/27 06:42:23;;;;;;;36.28;11.52;;;;;;;3.82;90.05;100197.13;5061980;28;20053;-84
2022/03/27 06:44:55;;;;;;;27.35;12.55;;;;;;;3.87;88.38;100204.91;5056698;28;20041;-84
2022/03/27 06:47:23;;;;;;;25.40;11.18;;;;;;;4.01;88.03;100215.44;5069240;28;20048;-84
2022/03/27 06:49:51;;;;;;;28.90;12.43;;;;;;;4.05;86.50;100208.88;5062564;28;20170;-84
2022/03/27 06:52:19;;;;;;;42.13;14.77;;;;;;;4.15;84.43;100205.47;5058967;28;20049;-84
2022/03/27 06:54:46;;;;;;;34.83;13.95;;;;;;;4.32;83.87;100212.22;5056107;28;20136;-83
2022/03/27 06:57:14;;;;;;;25.83;12.90;;;;;;;4.51;82.17;100207.13;5060839;28;20060;-84
2022/03/27 07:05:14;;;;;;;41.50;12.98;;;;;;;5.11;80.46;100209.59;5066810;28;20507;-83
2022/03/27 07:07:41;;;;;;;29.20;12.00;;;;;;;5.27;80.63;100203.81;5069024;28;20049;-83
2022/03/27 07:10:08;;;;;;;27.70;12.50;;;;;;;5.20;78.44;100189.13;5066352;28;20045;-83
2022/03/27 07:12:34;;;;;;;30.45;13.40;;;;;;;5.47;78.82;100192.22;5050996;28;20041;-83
2022/03/27 07:15:01;;;;;;;29.10;12.63;;;;;;;5.56;78.41;100217.59;5061489;28;20049;-83
2022/03/27 07:17:30;;;;;;;26.90;13.43;;;;;;;5.55;78.35;100209.63;5051371;28;20401;-83
2022/03/27 07:19:57;;;;;;;30.98;13.85;;;;;;;5.68;77.89;100207.63;5052714;28;20056;-83
2022/03/27 07:22:23;;;;;;;37.20;13.00;;;;;;;5.84;77.11;100201.78;5061955;28;20067;-83
2022/03/27 07:24:51;;;;;;;33.03;12.93;;;;;;;5.91;76.97;100189.50;5059001;28;20044;-84
2022/03/27 07:27:20;;;;;;;30.08;13.13;;;;;;;6.20;74.24;100203.25;5053128;28;20425;-82
2022/03/27 07:29:48;;;;;;;35.45;13.02;;;;;;;6.33;73.25;100210.28;5060712;28;20048;-81
2022/03/27 07:32:15;;;;;;;31.80;12.25;;;;;;;6.10;72.82;100217.69;5059274;28;20544;-81
2022/03/27 07:34:43;;;;;;;35.05;12.63;;;;;;;6.25;72.60;100210.97;5052483;28;20132;-81
2022/03/27 07:37:09;;;;;;;35.38;12.88;;;;;;;6.33;73.57;100213.00;5055443;28;20408;-81
2022/03/27 07:39:36;;;;;;;35.17;12.95;;;;;;;6.50;72.67;100211.53;5066550;28;20084;-80
2022/03/27 07:42:03;;;;;;;29.55;13.23;;;;;;;6.55;72.56;100187.69;5069429;28;20132;-82
2022/03/27 07:44:31;;;;;;;29.85;13.52;;;;;;;6.75;74.33;100209.41;5065527;28;20514;-82
2022/03/27 07:47:01;;;;;;;26.58;12.35;;;;;;;6.87;73.94;100194.81;5056037;28;20045;-81
2022/03/27 07:49:30;;;;;;;31.63;12.48;;;;;;;6.99;74.06;100188.31;5055290;28;20131;-82
2022/03/27 07:52:05;;;;;;;25.80;12.30;;;;;;;7.16;74.35;100212.97;5063991;28;20084;-82
2022/03/27 07:54:35;;;;;;;28.63;12.93;;;;;;;7.20;74.44;100204.47;5056897;28;20408;-82
2022/03/27 07:57:05;;;;;;;32.22;12.73;;;;;;;7.41;73.36;100212.50;5059168;28;20503;-82
2022/03/27 07:59:31;;;;;;;33.53;12.18;;;;;;;7.35;73.56;100206.78;5051978;28;20064;-81
2022/03/27 08:01:58;;;;;;;28.67;11.40;;;;;;;7.41;73.53;100212.50;5056771;28;20167;-82
2022/03/27 08:04:28;;;;;;;28.00;12.40;;;;;;;7.28;74.03;100198.34;5066997;28;20055;-82
2022/03/27 08:06:55;;;;;;;30.23;12.90;;;;;;;7.35;74.00;100207.63;5061181;28;20051;-82
2022/03/27 08:09:23;;;;;;;24.73;12.30;;;;;;;7.53;74.58;100206.97;5069344;28;20436;-82
2022/03/27 08:11:49;;;;;;;25.90;13.15;;;;;;;7.52;74.43;100206.09;5068892;28;20484;-82
2022/03/27 08:14:16;;;;;;;33.28;13.07;;;;;;;7.69;74.60;100201.00;5063036;28;20045;-82
2022/03/27 08:16:42;;;;;;;32.70;13.18;;;;;;;7.76;73.92;100194.03;5050027;28;20256;-82
2022/03/27 08:19:09;;;;;;;31.38;12.55;;;;;;;7.80;73.51;100187.34;5050769;28;20045;-82
2022/03/27 08:21:37;;;;;;;28.05;12.73;;;;;;;8.06;72.57;100220.09;5069177;28;20500;-82
2022/03/27 08:24:04;;;;;;;26.88;13.18;;;;;;;8.01;70.96;100198.03;5064368;28;20077;-82
2022/03/27 08:29:16;;;;;;;27.98;13.82;;;;;;;8.30;70.55;100216.94;5066228;28;20056;-82
2022/03/27 08:31:43;;;;;;;27.33;12.88;;;;;;;8.41;71.11;100220.50;5069422;28;20424;-82
2022/03/27 08:34:10;;;;;;;26.83;12.35;;;;;;;8.42;69.30;100205.97;5073036;28;20564;-83
2022/03/27 08:36:36;;;;;;;25.67;12.40;;;;;;;8.64;70.81;100202.94;5069831;28;20484;-83
2022/03/27 08:39:03;;;;;;;32.05;14.68;;;;;;;8.82;69.32;100204.88;5069092;28;20047;-82
2022/03/27 08:41:29;;;;;;;33.25;12.27;;;;;;;8.70;69.08;100187.94;5073018;28;20040;-83
2022/03/27 08:43:59;;;;;;;26.60;13.20;;;;;;;8.86;70.73;100187.31;5065252;28;20041;-83
2022/03/27 08:46:27;;;;;;;31.33;11.70;;;;;;;9.05;71.33;100197.22;5054115;28;20060;-83
2022/03/27 08:48:59;;;;;;;26.25;12.32;;;;;;;9.26;70.06;100196.13;5064663;28;20455;-83
2022/03/27 08:51:34;;;;;;;30.60;12.32;;;;;;;9.32;70.53;100199.09;5059829;28;20135;-83
2022/03/27 08:54:04;;;;;;;26.63;12.30;;;;;;;9.35;69.13;100198.78;5059330;28;20060;-83
2022/03/27 08:56:32;;;;;;;34.75;13.20;;;;;;;9.49;69.51;100202.00;5072093;28;20048;-83
2022/03/27 08:59:04;;;;;;;35.55;12.45;;;;;;;9.57;69.23;100205.66;5073353;28;20041;-83
2022/03/27 09:01:31;;;;;;;34.33;12.60;;;;;;;9.71;69.98;100182.56;5073206;28;20079;-83
2022/03/27 09:03:58;;;;;;;26.95;13.30;;;;;;;9.86;68.09;100179.28;5069265;28;20129;-83
2022/03/27 09:06:25;;;;;;;26.27;13.10;;;;;;;10.01;68.11;100190.44;5065498;28;20045;-83
2022/03/27 09:08:52;;;;;;;22.33;11.68;;;;;;;10.14;67.28;100190.06;5053600;28;20053;-81
2022/03/27 09:11:20;;;;;;;25.17;12.85;;;;;;;10.16;66.08;100188.91;5053518;28;20049;-83
2022/03/27 09:13:49;;;;;;;29.15;14.00;;;;;;;10.30;67.55;100194.75;5072339;28;20385;-82
2022/03/27 09:16:18;;;;;;;22.25;10.77;;;;;;;10.36;66.30;100199.63;5072267;28;20048;-82
2022/03/27 09:18:47;;;;;;;33.70;13.30;;;;;;;10.47;66.78;100185.75;5073088;28;20053;-82
2022/03/27 09:21:14;;;;;;;25.23;12.95;;;;;;;10.58;66.87;100177.34;5060931;28;20073;-82
2022/03/27 09:23:41;;;;;;;29.60;13.88;;;;;;;10.71;66.50;100190.50;5072425;28;20143;-82
2022/03/27 09:26:09;;;;;;;31.35;13.25;;;;;;;10.86;66.37;100187.19;5072567;28;20057;-82
2022/03/27 09:28:37;;;;;;;25.77;13.35;;;;;;;11.03;67.96;100205.28;5069299;28;20049;-82
2022/03/27 09:31:05;;;;;;;29.95;13.60;;;;;;;11.16;65.12;100199.41;5071496;28;20040;-82
2022/03/27 09:33:46;;;;;;;31.35;12.70;;;;;;;11.19;64.88;100193.66;5071906;28;20051;-82
2022/03/27 09:36:14;;;;;;;33.60;14.05;;;;;;;11.30;64.61;100192.47;5055685;28;20118;-82
2022/03/27 09:38:41;;;;;;;26.05;12.65;;;;;;;11.34;63.33;100178.38;5049112;28;20076;-82
2022/03/27 09:41:28;;;;;;;29.90;12.00;;;;;;;11.48;63.75;100184.22;5058936;28;20047;-82
2022/03/27 09:44:01;;;;;;;23.13;11.27;;;;;;;11.67;63.52;100186.63;5068289;28;20057;-82
2022/03/27 09:46:28;;;;;;;22.98;10.98;;;;;;;11.74;63.81;100169.63;5068954;28;20098;-82
2022/03/27 09:48:59;;;;;;;30.77;11.20;;;;;;;11.92;62.19;100175.75;5049996;28;20048;-82
2022/03/27 09:51:25;;;;;;;25.40;11.48;;;;;;;11.89;61.36;100167.09;5050724;28;20076;-82
2022/03/27 09:53:57;;;;;;;24.83;12.80;;;;;;;12.13;62.62;100167.13;5067765;28;20068;-82
2022/03/27 09:56:29;;;;;;;27.63;12.13;;;;;;;12.25;60.47;100173.09;5067393;28;20056;-82
2022/03/27 09:58:57;;;;;;;27.42;12.23;;;;;;;12.44;62.31;100166.44;5055659;28;20060;-82
2022/03/27 10:01:24;;;;;;;25.50;13.18;;;;;;;12.47;60.97;100155.19;5069947;28;20048;-83
2022/03/27 10:04:00;;;;;;;24.17;11.90;;;;;;;12.57;59.08;100155.84;5068727;28;20136;-83
2022/03/27 10:06:31;;;;;;;21.90;12.25;;;;;;;12.69;59.26;100153.59;5063317;28;20045;-83
2022/03/27 10:09:00;;;;;;;22.48;12.15;;;;;;;12.87;57.48;100145.19;5049756;28;20076;-83
2022/03/27 10:11:28;;;;;;;26.23;11.73;;;;;;;12.99;58.91;100136.59;5050203;28;20156;-83
2022/03/27 10:13:55;;;;;;;24.00;10.95;;;;;;;13.38;56.83;100158.50;5067503;28;20052;-83
2022/03/27 10:16:28;;;;;;;28.77;12.25;;;;;;;13.35;55.96;100141.59;5069393;28;20404;-82
2022/03/27 10:18:57;;;;;;;30.08;11.77;;;;;;;13.37;55.51;100144.97;5049726;28;20122;-83
2022/03/27 10:21:27;;;;;;;21.63;10.60;;;;;;;13.44;57.92;100135.91;5049968;28;20057;-83
2022/03/27 10:24:03;;;;;;;27.40;11.45;;;;;;;13.54;56.46;100116.53;5048637;28;20144;-83
2022/03/27 10:26:31;;;;;;;22.20;11.45;;;;;;;13.70;54.77;100133.84;5049693;28;20041;-83
2022/03/27 10:28:59;;;;;;;33.22;12.82;;;;;;;13.94;53.04;100130.06;5050380;28;20127;-82
2022/03/27 10:31:27;;;;;;;28.15;10.60;;;;;;;14.03;50.77;100118.06;5068894;28;20045;-83
2022/03/27 10:33:58;;;;;;;23.83;10.80;;;;;;;14.22;55.97;100122.16;5068412;28;20051;-83
2022/03/27 10:36:34;;;;;;;29.27;11.75;;;;;;;14.50;54.91;100105.13;5069678;28;20044;-83
2022/03/27 10:39:09;;;;;;;24.88;9.50;;;;;;;14.77;50.07;100102.78;5068094;28;20450;-83
2022/03/27 10:41:42;;;;;;;25.60;10.48;;;;;;;14.95;48.02;100102.41;5068248;28;20059;-83
2022/03/27 10:44:13;;;;;;;18.00;9.18;;;;;;;14.86;46.55;100113.47;5063999;28;20127;-83
2022/03/27 10:46:40;;;;;;;21.98;10.02;;;;;;;14.82;46.56;100101.19;5065944;28;20059;-83
2022/03/27 10:49:14;;;;;;;21.33;9.68;;;;;;;14.91;43.46;100074.56;5049043;28;20055;-82
2022/03/27 10:51:43;;;;;;;18.38;8.15;;;;;;;15.33;45.27;100105.00;5049277;28;20068;-82
2022/03/27 10:54:12;;;;;;;19.65;8.18;;;;;;;15.44;41.90;100078.97;5066596;28;20123;-81
2022/03/27 10:56:41;;;;;;;17.83;7.00;;;;;;;15.61;41.29;100085.03;5069546;28;20044;-82
2022/03/27 10:59:14;;;;;;;23.33;8.20;;;;;;;15.89;40.57;100077.75;5049109;28;20263;-82
2022/03/27 11:01:44;;;;;;;21.33;9.15;;;;;;;16.07;39.73;100099.22;5056966;28;20048;-82
2022/03/27 11:04:12;;;;;;;20.70;7.80;;;;;;;16.09;39.49;100104.50;5067341;28;20507;-82
2022/03/27 11:06:43;;;;;;;21.85;6.85;;;;;;;16.10;38.22;100092.50;5068923;28;20135;-82
2022/03/27 11:09:14;;;;;;;19.73;7.43;;;;;;;16.18;37.80;100089.59;5050266;28;20060;-82
2022/03/27 11:12:04;;;;;;;18.10;7.70;;;;;;;16.35;40.20;100075.56;5049321;28;20114;-83
2022/03/27 11:15:05;;;;;;;17.48;7.07;;;;;;;16.51;40.90;100066.19;5048524;28;20083;-82
2022/03/27 11:17:41;;;;;;;15.02;7.95;;;;;;;16.56;38.16;100066.41;5049946;28;20127;-83
2022/03/27 11:20:41;;;;;;;21.38;8.57;;;;;;;16.56;37.32;100060.94;5060691;28;20041;-82
2022/03/27 11:23:27;;;;;;;15.55;7.00;;;;;;;16.85;38.81;100062.56;5050046;28;20053;-83
2022/03/27 11:25:54;;;;;;;21.17;8.75;;;;;;;17.01;38.55;100063.28;5062763;28;20063;-83
2022/03/27 11:28:21;;;;;;;18.25;7.63;;;;;;;17.08;36.85;100070.50;5057089;28;20059;-83
2022/03/27 11:31:24;;;;;;;16.48;6.57;;;;;;;17.12;35.30;100059.97;5055524;28;20048;-83
2022/03/27 11:34:17;;;;;;;12.38;6.53;;;;;;;17.02;34.55;100062.25;5066296;28;20056;-83